Time;durP1;ratioP1;P1;durP2;ratioP2;P2;SDS_P1;SDS_P2;PMS_P1;PMS_P2;Temp;Humidity;BMP_temperature;BMP_pressure;BME280_temperature;BME280_humidity;BME280_pressure;Samples;Min_cycle;Max_cycle;Signal;HPM_P1;HPM_P2
2022/02/18 00:02:13;;;;;;;9.33;2.77;;;;;;;9.79;57.03;95463.22;5077161;28;20239;-82
2022/02/18 00:04:40;;;;;;;9.13;3.07;;;;;;;9.81;56.92;95460.47;5076183;28;20286;-82
2022/02/18 00:07:07;;;;;;;9.00;3.10;;;;;;;9.72;58.00;95458.94;5077238;28;20552;-82
2022/02/18 00:09:35;;;;;;;9.73;3.53;;;;;;;9.77;57.56;95460.03;5077258;28;20223;-83
2022/02/18 00:12:02;;;;;;;7.03;2.60;;;;;;;9.74;58.05;95464.72;5076371;28;20722;-81
2022/02/18 00:14:28;;;;;;;8.00;3.37;;;;;;;9.78;57.50;95455.69;5076809;28;20196;-82
2022/02/18 00:16:55;;;;;;;8.17;2.90;;;;;;;9.81;57.80;95445.06;5076793;28;20781;-82
2022/02/18 00:19:21;;;;;;;10.53;2.87;;;;;;;9.83;57.93;95436.16;5076644;28;20225;-82
2022/02/18 00:21:49;;;;;;;6.97;2.13;;;;;;;9.80;58.03;95430.59;5076289;28;20236;-82
2022/02/18 00:24:16;;;;;;;10.57;2.90;;;;;;;9.78;58.01;95435.13;5075849;28;20212;-82
2022/02/18 00:26:44;;;;;;;6.63;2.90;;;;;;;9.71;58.37;95435.00;5076496;28;20201;-83
2022/02/18 00:29:11;;;;;;;11.80;3.00;;;;;;;9.75;58.20;95436.25;5076472;28;20737;-82
2022/02/18 00:31:37;;;;;;;8.53;2.70;;;;;;;9.74;58.26;95437.22;5056254;22;20238;-82
2022/02/18 00:34:04;;;;;;;9.37;3.20;;;;;;;9.79;58.31;95434.94;5032527;28;20208;-83
2022/02/18 00:36:30;;;;;;;9.40;2.60;;;;;;;9.77;58.01;95436.88;5033710;28;20205;-80
2022/02/18 00:38:57;;;;;;;8.37;2.93;;;;;;;9.71;58.42;95432.44;5033553;28;20226;-83
2022/02/18 00:41:23;;;;;;;10.13;2.97;;;;;;;9.79;58.15;95432.38;5032852;28;20230;-83
2022/02/18 00:43:53;;;;;;;7.60;2.77;;;;;;;9.91;58.55;95422.44;5032885;28;20206;-83
2022/02/18 00:46:20;;;;;;;7.73;3.03;;;;;;;9.92;58.32;95419.69;5033221;28;20202;-83
2022/02/18 00:48:46;;;;;;;9.83;3.17;;;;;;;10.00;58.18;95419.63;5033132;28;20209;-83
2022/02/18 00:51:13;;;;;;;9.90;3.27;;;;;;;9.94;57.93;95422.91;5032819;28;20292;-83
2022/02/18 00:53:40;;;;;;;11.33;3.13;;;;;;;9.87;58.52;95434.03;5032821;28;20202;-83
2022/02/18 00:56:07;;;;;;;9.93;2.77;;;;;;;9.86;58.35;95414.44;5033098;28;20202;-82
2022/02/18 00:58:34;;;;;;;9.23;3.47;;;;;;;9.84;58.66;95418.97;5033136;28;20205;-83
2022/02/18 01:01:03;;;;;;;8.97;3.23;;;;;;;9.81;58.97;95425.28;5032439;28;20261;-83
2022/02/18 01:03:29;;;;;;;10.30;2.50;;;;;;;9.78;59.59;95441.06;5032687;28;20202;-83
2022/02/18 01:05:55;;;;;;;8.43;3.00;;;;;;;9.80;59.53;95446.81;5032418;28;20213;-83
2022/02/18 01:08:22;;;;;;;8.03;2.90;;;;;;;9.77;59.72;95448.94;5032559;28;20819;-85
2022/02/18 01:10:49;;;;;;;10.23;3.27;;;;;;;9.78;59.41;95448.78;5032199;28;20708;-81
2022/02/18 01:13:15;;;;;;;9.67;2.83;;;;;;;9.77;59.97;95439.47;5032035;28;20210;-80
2022/02/18 01:15:42;;;;;;;10.50;3.13;;;;;;;9.79;59.84;95432.38;5032092;28;20202;-83
2022/02/18 01:18:10;;;;;;;6.07;2.60;;;;;;;9.79;59.83;95431.56;5032334;28;20260;-83
2022/02/18 01:20:37;;;;;;;5.80;2.43;;;;;;;9.73;60.55;95432.25;5032008;28;20226;-83
2022/02/18 01:23:03;;;;;;;9.50;2.67;;;;;;;9.70;60.33;95431.63;5031504;28;20300;-83
2022/02/18 01:25:30;;;;;;;6.67;2.57;;;;;;;9.66;60.64;95424.44;5032012;28;20627;-83
2022/02/18 01:27:57;;;;;;;8.27;2.50;;;;;;;9.72;60.89;95428.88;5033647;28;20198;-85
2022/02/18 01:30:25;;;;;;;11.30;3.00;;;;;;;9.63;61.15;95430.72;5041695;28;20225;-84
2022/02/18 01:32:52;;;;;;;7.27;2.90;;;;;;;9.61;61.34;95430.13;5052739;28;20232;-84
2022/02/18 01:35:21;;;;;;;7.97;2.60;;;;;;;9.65;61.17;95415.94;5053202;28;20201;-85
2022/02/18 01:37:49;;;;;;;6.20;2.27;;;;;;;9.58;61.75;95424.53;5052829;28;20813;-84
2022/02/18 01:40:16;;;;;;;7.43;2.53;;;;;;;9.54;61.65;95423.28;5052414;28;20222;-84
2022/02/18 01:42:43;;;;;;;10.57;2.63;;;;;;;9.46;62.18;95410.47;5052400;28;20232;-83
2022/02/18 01:45:10;;;;;;;7.93;2.70;;;;;;;9.50;62.10;95414.31;5052779;28;20201;-84
2022/02/18 01:47:37;;;;;;;10.70;2.93;;;;;;;9.38;62.41;95413.13;5052631;28;20258;-82
2022/02/18 01:50:05;;;;;;;10.30;2.93;;;;;;;9.40;62.46;95406.06;5052111;28;20279;-81
2022/02/18 01:52:35;;;;;;;8.20;2.90;;;;;;;9.45;62.33;95412.25;5052361;28;20225;-82
2022/02/18 01:55:07;;;;;;;9.23;2.70;;;;;;;9.50;61.98;95417.66;5052412;28;20212;-85
2022/02/18 01:57:33;;;;;;;9.60;2.77;;;;;;;9.53;61.77;95412.19;5052960;28;20309;-83
2022/02/18 02:00:00;;;;;;;9.10;2.83;;;;;;;9.54;61.75;95416.34;5052386;28;20229;-83
2022/02/18 02:02:26;;;;;;;10.67;2.70;;;;;;;9.61;61.97;95408.75;5052185;28;20237;-83
2022/02/18 02:04:53;;;;;;;11.63;2.83;;;;;;;9.58;61.57;95409.09;5051941;28;20201;-83
2022/02/18 02:07:19;;;;;;;8.27;2.57;;;;;;;9.61;62.02;95406.19;5052820;28;20248;-84
2022/02/18 02:09:47;;;;;;;12.70;3.33;;;;;;;9.48;62.20;95406.75;5050793;28;20218;-84
2022/02/18 02:12:13;;;;;;;8.40;2.93;;;;;;;9.59;61.61;95406.38;5050684;28;20724;-83
2022/02/18 02:14:40;;;;;;;9.20;2.87;;;;;;;9.54;62.25;95398.38;5050796;28;20208;-83
2022/02/18 02:17:06;;;;;;;7.97;3.17;;;;;;;9.60;61.90;95404.59;5051080;28;20243;-83
2022/02/18 02:19:33;;;;;;;7.07;2.03;;;;;;;9.58;61.82;95391.13;5050572;28;20638;-83
2022/02/18 02:21:59;;;;;;;10.07;3.00;;;;;;;9.62;61.75;95393.13;5050197;28;20272;-84
2022/02/18 02:24:27;;;;;;;8.90;3.00;;;;;;;9.64;61.93;95380.91;5050430;28;20205;-84
2022/02/18 02:26:54;;;;;;;7.37;2.53;;;;;;;9.59;62.27;95379.88;5050727;28;20255;-83
2022/02/18 02:29:20;;;;;;;8.10;3.07;;;;;;;9.59;62.27;95387.56;5050375;28;20713;-84
2022/02/18 02:31:47;;;;;;;8.27;2.80;;;;;;;9.66;62.46;95388.44;5049740;28;20229;-83
2022/02/18 02:34:14;;;;;;;7.03;2.37;;;;;;;9.60;62.56;95366.84;5050043;28;20202;-83
2022/02/18 02:36:42;;;;;;;9.27;2.70;;;;;;;9.58;62.69;95365.41;5050098;28;20781;-81
2022/02/18 02:39:10;;;;;;;9.27;2.90;;;;;;;9.57;62.85;95353.53;5050582;28;20201;-84
2022/02/18 02:41:38;;;;;;;9.27;2.90;;;;;;;9.64;62.77;95334.66;5049574;28;20312;-83
2022/02/18 02:44:05;;;;;;;7.33;2.87;;;;;;;9.62;63.30;95353.81;5050089;28;20331;-83
2022/02/18 02:46:31;;;;;;;8.73;3.03;;;;;;;9.70;62.91;95361.44;5049685;28;20209;-83
2022/02/18 02:48:57;;;;;;;8.23;2.63;;;;;;;9.65;63.08;95356.81;5050069;28;20267;-83
2022/02/18 02:51:24;;;;;;;7.17;2.63;;;;;;;9.67;63.00;95356.63;5049549;28;20251;-83
2022/02/18 02:53:50;;;;;;;10.23;2.73;;;;;;;9.63;63.50;95355.38;5050180;28;20262;-83
2022/02/18 02:56:17;;;;;;;7.40;2.53;;;;;;;9.71;63.15;95350.16;5050260;28;20224;-83
2022/02/18 02:58:45;;;;;;;10.50;2.77;;;;;;;9.73;63.28;95352.56;5050415;28;20201;-84
2022/02/18 03:01:12;;;;;;;10.90;2.50;;;;;;;9.75;63.17;95360.91;5049730;28;20769;-83
2022/02/18 03:03:38;;;;;;;10.23;2.93;;;;;;;9.78;62.88;95386.25;5049679;28;20211;-81
2022/02/18 03:06:04;;;;;;;8.90;3.80;;;;;;;9.76;63.30;95383.88;5049918;28;20204;-85
2022/02/18 03:08:31;;;;;;;6.63;2.73;;;;;;;9.70;63.39;95382.78;5050317;28;20205;-81
2022/02/18 03:11:16;;;;;;;10.40;2.83;;;;;;;9.80;62.58;95390.25;5049521;28;20217;-83
2022/02/18 03:13:42;;;;;;;8.77;2.77;;;;;;;9.82;62.82;95403.72;5049750;28;20573;-83
2022/02/18 03:16:10;;;;;;;7.47;2.83;;;;;;;9.87;62.28;95409.13;5049473;28;20201;-84
2022/02/18 03:18:36;;;;;;;8.90;2.90;;;;;;;9.88;62.53;95415.88;5050290;28;20210;-82
2022/02/18 03:21:03;;;;;;;8.67;2.87;;;;;;;9.85;62.45;95402.56;5049485;28;20233;-83
2022/02/18 03:23:30;;;;;;;8.10;2.90;;;;;;;9.91;62.32;95417.31;5049891;28;20205;-84
2022/02/18 03:25:56;;;;;;;9.30;2.80;;;;;;;9.86;62.49;95422.16;5049831;28;20217;-83
2022/02/18 03:28:22;;;;;;;10.07;2.77;;;;;;;9.88;62.96;95428.72;5049717;28;20248;-84
2022/02/18 03:30:49;;;;;;;10.07;2.73;;;;;;;9.90;62.68;95413.94;5048809;28;20598;-83
2022/02/18 03:33:17;;;;;;;9.67;3.20;;;;;;;9.95;63.11;95401.34;5049864;28;20209;-84
2022/02/18 03:35:43;;;;;;;10.17;3.33;;;;;;;9.93;63.20;95395.56;5049855;28;20205;-84
2022/02/18 03:38:10;;;;;;;11.03;3.13;;;;;;;9.94;63.26;95402.31;5049989;28;20201;-82
2022/02/18 03:40:37;;;;;;;8.10;2.63;;;;;;;9.92;63.68;95399.13;5050188;28;20225;-83
2022/02/18 03:43:03;;;;;;;11.07;3.00;;;;;;;9.93;63.88;95382.72;5049987;28;20244;-83
2022/02/18 03:45:30;;;;;;;13.00;3.07;;;;;;;9.87;64.53;95375.72;5050025;28;20197;-82
2022/02/18 03:47:57;;;;;;;7.77;2.90;;;;;;;9.85;64.61;95366.56;5050091;28;20201;-84
2022/02/18 03:50:24;;;;;;;10.20;2.80;;;;;;;9.94;64.31;95378.38;5049230;28;20222;-85
2022/02/18 03:52:51;;;;;;;9.67;3.00;;;;;;;9.92;64.64;95386.25;5049261;28;20283;-81
2022/02/18 03:55:18;;;;;;;8.93;2.77;;;;;;;9.81;65.03;95393.63;5049572;28;20201;-82
2022/02/18 03:57:44;;;;;;;6.57;2.60;;;;;;;9.84;65.10;95412.06;5050103;28;20201;-81
2022/02/18 04:00:12;;;;;;;8.30;3.27;;;;;;;9.84;65.33;95419.75;5053043;28;20235;-81
2022/02/18 04:02:39;;;;;;;11.30;2.83;;;;;;;9.89;65.06;95412.31;5052829;28;20631;-81
2022/02/18 04:05:06;;;;;;;10.10;3.07;;;;;;;9.83;65.42;95410.44;5052897;28;20197;-82
2022/02/18 04:07:34;;;;;;;10.17;2.53;;;;;;;9.90;65.40;95385.63;5053360;28;20239;-83
2022/02/18 04:10:00;;;;;;;10.10;3.10;;;;;;;9.87;65.34;95383.41;5053109;28;20218;-81
2022/02/18 04:12:27;;;;;;;12.50;2.70;;;;;;;9.91;65.04;95389.81;5052629;28;20233;-84
2022/02/18 04:14:53;;;;;;;9.30;3.17;;;;;;;9.82;65.27;95392.63;5053402;28;20575;-83
2022/02/18 04:17:21;;;;;;;9.17;2.60;;;;;;;9.84;65.31;95377.81;5053034;28;20201;-83
2022/02/18 04:19:48;;;;;;;10.73;3.03;;;;;;;9.83;65.47;95381.38;5052872;28;20237;-85
2022/02/18 04:22:14;;;;;;;12.07;3.07;;;;;;;9.78;65.24;95379.34;5052377;28;20229;-84
2022/02/18 04:24:42;;;;;;;11.73;3.00;;;;;;;9.88;65.21;95371.34;5053304;28;20575;-83
2022/02/18 04:27:08;;;;;;;8.37;2.83;;;;;;;9.83;65.00;95369.31;5053692;28;20209;-83
2022/02/18 04:29:35;;;;;;;9.37;2.60;;;;;;;9.88;64.98;95372.16;5052550;28;20625;-83
2022/02/18 04:32:01;;;;;;;6.43;2.60;;;;;;;9.79;64.93;95372.44;5052344;28;20233;-83
2022/02/18 04:34:28;;;;;;;8.13;2.63;;;;;;;9.83;65.11;95365.94;5052535;28;20205;-83
2022/02/18 04:36:54;;;;;;;8.23;2.30;;;;;;;9.92;64.47;95367.47;5052677;28;20201;-83
2022/02/18 04:39:21;;;;;;;9.50;2.53;;;;;;;9.85;64.54;95377.66;5052579;28;20271;-83
2022/02/18 04:41:48;;;;;;;9.57;2.70;;;;;;;9.89;64.69;95366.03;5052042;28;20256;-83
2022/02/18 04:44:16;;;;;;;8.10;2.63;;;;;;;9.89;64.35;95368.63;5052575;28;20670;-81
2022/02/18 04:46:42;;;;;;;8.27;2.73;;;;;;;9.95;64.18;95360.19;5052563;28;20217;-81
2022/02/18 04:49:09;;;;;;;7.87;2.70;;;;;;;9.90;64.50;95359.94;5052512;28;20205;-83
2022/02/18 04:51:37;;;;;;;8.63;2.50;;;;;;;9.94;63.99;95356.03;5051858;28;20236;-82
2022/02/18 04:54:04;;;;;;;10.03;3.00;;;;;;;9.91;64.49;95346.09;5052137;28;20197;-81
2022/02/18 04:56:30;;;;;;;10.17;2.40;;;;;;;9.96;64.10;95350.72;5052403;28;20223;-81
2022/02/18 04:58:59;;;;;;;8.73;2.87;;;;;;;10.02;64.04;95358.50;5052556;28;20210;-82
2022/02/18 05:01:26;;;;;;;6.53;2.97;;;;;;;10.02;63.91;95352.53;5051634;28;20229;-82
2022/02/18 05:03:52;;;;;;;10.13;2.77;;;;;;;9.98;64.33;95349.56;5052144;28;20259;-82
2022/02/18 05:06:19;;;;;;;7.50;2.80;;;;;;;9.96;64.37;95336.06;5052622;28;20216;-83
2022/02/18 05:08:46;;;;;;;9.67;2.80;;;;;;;9.92;64.12;95339.97;5052246;28;20656;-82
2022/02/18 05:11:13;;;;;;;9.90;3.00;;;;;;;9.93;64.07;95335.63;5051890;28;20259;-81
2022/02/18 05:13:39;;;;;;;9.37;2.67;;;;;;;9.93;64.30;95340.78;5052070;28;20205;-84
2022/02/18 05:16:07;;;;;;;7.13;3.00;;;;;;;9.94;64.60;95324.38;5052310;28;20205;-83
2022/02/18 05:18:33;;;;;;;8.83;2.60;;;;;;;9.90;64.59;95329.06;5052008;28;20235;-82
2022/02/18 05:21:00;;;;;;;5.33;2.00;;;;;;;9.90;64.75;95316.22;5050667;28;20225;-82
2022/02/18 05:23:26;;;;;;;9.93;2.67;;;;;;;9.89;64.37;95316.38;5051319;28;20208;-81
2022/02/18 05:25:53;;;;;;;8.90;2.90;;;;;;;9.94;64.59;95307.16;5051764;28;20423;-82
2022/02/18 05:28:19;;;;;;;11.27;2.63;;;;;;;9.96;64.33;95312.13;5051754;28;20263;-81
2022/02/18 05:30:46;;;;;;;7.77;3.00;;;;;;;9.83;64.97;95317.88;5050958;28;20226;-81
2022/02/18 05:33:13;;;;;;;10.87;3.50;;;;;;;9.81;64.95;95324.22;5051206;28;20252;-81
2022/02/18 05:35:40;;;;;;;7.87;2.70;;;;;;;9.74;65.14;95318.16;5051198;28;20667;-83
2022/02/18 05:38:06;;;;;;;10.33;3.17;;;;;;;9.77;65.16;95321.19;5051845;28;20209;-83
2022/02/18 05:40:33;;;;;;;8.63;2.80;;;;;;;9.70;65.45;95322.88;5051625;28;20236;-81
2022/02/18 05:42:59;;;;;;;9.37;2.80;;;;;;;9.78;65.03;95315.06;5050817;28;20605;-83
2022/02/18 05:45:26;;;;;;;7.00;2.57;;;;;;;9.79;65.35;95305.59;5051574;28;20197;-84
2022/02/18 05:47:53;;;;;;;10.47;2.80;;;;;;;9.79;65.10;95301.25;5051780;28;20213;-84
2022/02/18 05:50:21;;;;;;;9.47;2.80;;;;;;;9.73;65.50;95307.09;5048925;28;20221;-83
2022/02/18 05:52:48;;;;;;;8.53;2.97;;;;;;;9.72;65.35;95302.91;5051480;28;20225;-83
2022/02/18 05:55:15;;;;;;;7.37;2.70;;;;;;;9.84;64.81;95287.84;5048553;28;20206;-83
2022/02/18 05:57:41;;;;;;;8.40;2.50;;;;;;;9.91;64.72;95291.28;5044011;28;20212;-83
2022/02/18 06:00:09;;;;;;;10.10;2.50;;;;;;;9.85;64.93;95289.44;5050851;28;20221;-83
2022/02/18 06:02:36;;;;;;;9.83;3.10;;;;;;;9.88;64.89;95291.66;5050980;28;20312;-83
2022/02/18 06:05:02;;;;;;;14.10;4.03;;;;;;;9.91;64.44;95288.72;5050541;28;20714;-84
2022/02/18 06:07:30;;;;;;;9.83;3.30;;;;;;;9.93;64.94;95285.00;5051366;28;20212;-83
2022/02/18 06:09:57;;;;;;;10.17;3.17;;;;;;;9.98;64.77;95287.03;5051140;28;20217;-84
2022/02/18 06:12:23;;;;;;;8.00;2.63;;;;;;;10.02;64.60;95283.09;5050273;28;20236;-82
2022/02/18 06:14:50;;;;;;;10.80;3.10;;;;;;;10.00;64.74;95285.88;5050114;28;20205;-81
2022/02/18 06:17:17;;;;;;;9.57;2.90;;;;;;;10.08;64.30;95294.47;5049740;28;20205;-83
2022/02/18 06:19:43;;;;;;;9.60;2.73;;;;;;;10.13;64.42;95302.44;5050779;28;20885;-83
2022/02/18 06:22:10;;;;;;;10.67;3.00;;;;;;;10.14;63.92;95299.69;5049781;28;20236;-82
2022/02/18 06:24:38;;;;;;;9.80;2.80;;;;;;;10.15;64.11;95300.50;5050647;28;20214;-80
2022/02/18 06:27:06;;;;;;;12.67;3.30;;;;;;;10.16;63.92;95294.38;5050258;28;20209;-83
2022/02/18 06:29:35;;;;;;;11.80;3.30;;;;;;;10.21;63.88;95302.34;5050460;28;20209;-82
2022/02/18 06:32:02;;;;;;;9.57;3.60;;;;;;;10.18;64.37;95293.22;5050075;28;20236;-83
2022/02/18 06:34:29;;;;;;;15.67;4.10;;;;;;;10.12;67.86;95300.84;5050826;28;20201;-83
2022/02/18 06:36:55;;;;;;;9.83;3.23;;;;;;;10.12;65.81;95301.63;5050750;28;20201;-83
2022/02/18 06:39:23;;;;;;;10.90;3.40;;;;;;;10.17;65.64;95308.81;5050166;28;20209;-83
2022/02/18 06:41:51;;;;;;;9.80;3.30;;;;;;;10.22;65.20;95298.81;5049945;28;20241;-84
2022/02/18 06:44:17;;;;;;;8.17;3.20;;;;;;;10.29;65.11;95294.53;5050259;28;20212;-83
2022/02/18 06:46:44;;;;;;;11.63;4.37;;;;;;;10.26;64.19;95284.59;5050774;28;20204;-83
2022/02/18 06:49:10;;;;;;;9.23;2.90;;;;;;;10.29;64.03;95279.91;5049698;28;20742;-83
2022/02/18 06:51:37;;;;;;;12.37;3.37;;;;;;;10.29;63.99;95267.03;5050202;28;20303;-82
2022/02/18 06:54:04;;;;;;;12.87;3.80;;;;;;;10.28;64.00;95280.88;5049775;28;20205;-84
2022/02/18 06:56:30;;;;;;;10.33;2.93;;;;;;;10.33;64.12;95273.41;5050535;28;20201;-82
2022/02/18 06:58:58;;;;;;;12.27;3.30;;;;;;;10.35;64.03;95266.31;5050251;28;20212;-83
2022/02/18 07:01:25;;;;;;;10.57;3.00;;;;;;;10.34;64.12;95257.00;5051038;28;20600;-84
2022/02/18 07:03:51;;;;;;;8.00;3.17;;;;;;;10.41;64.01;95263.97;5050373;28;20201;-81
2022/02/18 07:06:17;;;;;;;10.47;3.17;;;;;;;10.41;63.81;95262.19;5050772;28;20236;-83
2022/02/18 07:08:44;;;;;;;10.57;3.30;;;;;;;10.43;63.73;95249.94;5050818;28;20216;-83
2022/02/18 07:11:10;;;;;;;10.83;3.50;;;;;;;10.43;63.55;95256.84;5051101;28;20240;-83
2022/02/18 07:13:37;;;;;;;11.87;3.20;;;;;;;10.45;63.89;95258.28;5050456;28;20213;-84
2022/02/18 07:16:05;;;;;;;11.07;3.33;;;;;;;10.50;63.29;95244.84;5051328;28;20675;-83
2022/02/18 07:18:32;;;;;;;9.50;3.00;;;;;;;10.52;63.35;95253.19;5052259;28;20201;-84
2022/02/18 07:20:58;;;;;;;7.97;2.57;;;;;;;10.53;63.52;95250.44;5050958;28;20230;-82
2022/02/18 07:23:25;;;;;;;8.57;3.03;;;;;;;10.54;63.45;95248.66;5051720;28;20706;-84
2022/02/18 07:25:51;;;;;;;10.57;3.03;;;;;;;10.53;63.39;95254.78;5052626;28;20432;-83
2022/02/18 07:28:18;;;;;;;8.07;3.10;;;;;;;10.59;62.83;95246.31;5052035;28;20201;-83
2022/02/18 07:30:44;;;;;;;10.50;3.27;;;;;;;10.64;62.95;95241.41;5050015;28;20607;-83
2022/02/18 07:33:12;;;;;;;13.13;2.90;;;;;;;10.67;62.63;95238.47;5055272;28;20660;-84
2022/02/18 07:35:39;;;;;;;8.03;2.67;;;;;;;10.65;62.74;95232.72;5056061;28;20223;-84
2022/02/18 07:38:05;;;;;;;6.27;3.00;;;;;;;10.64;62.56;95228.53;5057030;28;20197;-83
2022/02/18 07:40:32;;;;;;;8.53;2.90;;;;;;;10.61;62.71;95229.69;5056709;28;20213;-84
2022/02/18 07:42:58;;;;;;;10.60;3.10;;;;;;;10.68;62.58;95222.84;5055093;28;20287;-84
2022/02/18 07:45:25;;;;;;;10.60;2.80;;;;;;;10.74;62.56;95218.75;5055674;28;20197;-84
2022/02/18 07:47:55;;;;;;;9.30;3.23;;;;;;;10.79;62.35;95218.16;5056114;28;20201;-82
2022/02/18 07:50:24;;;;;;;11.90;3.07;;;;;;;10.81;61.89;95218.78;5054924;28;20220;-84
2022/02/18 07:52:51;;;;;;;8.17;2.80;;;;;;;10.81;61.82;95219.56;5054295;28;20283;-83
2022/02/18 07:55:18;;;;;;;11.07;2.67;;;;;;;10.79;62.04;95206.06;5054650;28;20209;-83
2022/02/18 07:57:45;;;;;;;15.10;2.90;;;;;;;10.87;61.59;95205.16;5055478;28;20261;-83
2022/02/18 08:00:13;;;;;;;7.83;2.77;;;;;;;10.92;61.51;95200.25;5055740;28;20221;-84
2022/02/18 08:02:40;;;;;;;9.37;2.70;;;;;;;10.92;61.11;95187.38;5055179;28;20240;-83
2022/02/18 08:05:07;;;;;;;13.10;3.13;;;;;;;10.94;61.05;95193.94;5054822;28;20208;-84
2022/02/18 08:07:35;;;;;;;9.83;2.83;;;;;;;10.94;61.43;95181.06;5055512;28;20255;-84
2022/02/18 08:10:01;;;;;;;6.87;2.67;;;;;;;10.99;61.20;95176.09;5055106;28;20232;-83
2022/02/18 08:12:28;;;;;;;9.77;2.87;;;;;;;10.96;60.90;95173.94;5055589;28;20628;-83
2022/02/18 08:14:54;;;;;;;11.20;3.13;;;;;;;11.00;61.11;95169.19;5054410;28;20212;-84
2022/02/18 08:17:21;;;;;;;9.53;3.47;;;;;;;10.99;60.87;95163.22;5054701;28;20205;-83
2022/02/18 08:19:47;;;;;;;6.73;2.23;;;;;;;10.98;60.86;95151.34;5054989;28;20230;-83
2022/02/18 08:22:17;;;;;;;9.03;2.53;;;;;;;10.99;60.72;95146.97;5054880;28;20236;-85
2022/02/18 08:24:44;;;;;;;6.97;2.37;;;;;;;11.01;61.09;95145.81;5055362;28;20206;-84
2022/02/18 08:27:11;;;;;;;8.10;2.57;;;;;;;11.02;60.27;95141.44;5055870;28;20201;-83
2022/02/18 08:29:37;;;;;;;5.40;2.23;;;;;;;11.05;60.41;95134.16;5053574;28;20263;-84
2022/02/18 08:32:04;;;;;;;7.60;2.93;;;;;;;11.08;60.13;95141.50;5053825;28;20660;-84
2022/02/18 08:34:31;;;;;;;8.77;2.77;;;;;;;11.14;59.93;95134.00;5054541;28;20278;-84
2022/02/18 08:36:57;;;;;;;8.63;2.83;;;;;;;11.15;60.44;95128.66;5053759;28;20221;-82
2022/02/18 08:39:23;;;;;;;8.00;2.43;;;;;;;11.12;60.18;95126.47;5054434;28;20567;-83
2022/02/18 08:41:51;;;;;;;7.83;3.80;;;;;;;11.14;60.42;95123.69;5053628;28;20751;-83
2022/02/18 08:44:19;;;;;;;9.27;3.00;;;;;;;11.12;60.64;95112.78;5052683;28;20206;-84
2022/02/18 08:46:46;;;;;;;6.83;2.50;;;;;;;11.12;60.97;95105.84;5054746;28;20198;-83
2022/02/18 08:49:12;;;;;;;7.00;2.47;;;;;;;11.08;61.27;95102.84;5053782;28;20197;-83
2022/02/18 08:51:39;;;;;;;5.90;2.30;;;;;;;11.10;61.11;95107.03;5053075;28;20225;-83
2022/02/18 08:54:06;;;;;;;5.50;2.20;;;;;;;11.10;61.59;95107.03;5053446;28;20197;-84
2022/02/18 08:56:33;;;;;;;6.83;2.50;;;;;;;11.13;61.28;95097.13;5052915;28;20209;-84
2022/02/18 08:59:04;;;;;;;4.77;1.87;;;;;;;11.16;61.55;95093.38;5053820;28;20208;-83
2022/02/18 09:01:30;;;;;;;6.97;2.47;;;;;;;11.17;62.35;95088.00;5052521;28;20230;-82
2022/02/18 09:03:57;;;;;;;5.90;2.90;;;;;;;11.24;62.52;95086.25;5052846;28;20208;-84
2022/02/18 09:06:23;;;;;;;10.03;2.90;;;;;;;11.28;62.35;95084.09;5052955;28;20284;-83
2022/02/18 09:08:50;;;;;;;6.37;2.40;;;;;;;11.22;63.08;95083.09;5052924;28;20204;-83
2022/02/18 09:11:18;;;;;;;5.03;2.00;;;;;;;11.12;62.48;95087.81;5052752;28;20229;-83
2022/02/18 09:13:44;;;;;;;6.80;2.63;;;;;;;11.11;63.58;95073.34;5052243;28;20289;-82
2022/02/18 09:16:12;;;;;;;6.20;2.23;;;;;;;11.13;63.33;95078.31;5052952;28;20201;-83
2022/02/18 09:18:39;;;;;;;6.00;2.27;;;;;;;11.15;63.32;95068.59;5053006;28;20247;-83
2022/02/18 09:21:07;;;;;;;5.93;2.30;;;;;;;11.09;63.66;95070.16;5051924;28;20236;-81
2022/02/18 09:23:34;;;;;;;10.90;3.00;;;;;;;11.16;62.98;95062.47;5052262;28;20214;-83
2022/02/18 09:26:00;;;;;;;6.97;2.40;;;;;;;11.17;62.69;95061.44;5052395;28;20201;-85
2022/02/18 09:28:28;;;;;;;10.07;2.73;;;;;;;11.21;62.27;95044.63;5054811;28;20212;-85
2022/02/18 09:30:56;;;;;;;4.23;2.27;;;;;;;11.33;62.06;95053.41;5047886;28;20328;-84
2022/02/18 09:33:25;;;;;;;6.33;2.00;;;;;;;11.37;61.54;95044.28;5054213;28;20201;-84
2022/02/18 09:35:52;;;;;;;6.57;2.47;;;;;;;11.40;61.01;95034.38;5053981;28;20584;-84
2022/02/18 09:38:20;;;;;;;3.93;2.07;;;;;;;11.36;61.59;95033.16;5054127;28;20202;-84
2022/02/18 09:40:47;;;;;;;6.53;2.50;;;;;;;11.47;61.51;95026.66;5054046;28;20221;-85
2022/02/18 09:43:15;;;;;;;7.30;2.83;;;;;;;11.48;61.02;95024.88;5053930;28;20228;-84
2022/02/18 09:45:50;;;;;;;5.97;2.20;;;;;;;11.42;61.45;95016.13;5052944;28;20204;-84
2022/02/18 09:48:16;;;;;;;6.77;2.13;;;;;;;11.42;60.57;95011.78;5052804;28;20218;-85
2022/02/18 09:50:44;;;;;;;4.37;2.30;;;;;;;11.46;60.87;95004.44;5053458;28;20233;-84
2022/02/18 09:53:15;;;;;;;8.00;2.47;;;;;;;11.58;60.69;94995.13;5053323;28;20221;-82
2022/02/18 09:55:47;;;;;;;7.60;2.80;;;;;;;11.59;58.63;94993.34;5053527;28;20583;-85
2022/02/18 09:58:20;;;;;;;4.53;2.00;;;;;;;11.67;59.07;94980.28;5053596;28;20213;-85
2022/02/18 10:00:55;;;;;;;3.80;1.90;;;;;;;11.75;58.51;94974.91;5050814;28;20218;-82
2022/02/18 10:03:22;;;;;;;4.20;2.07;;;;;;;11.78;57.81;94974.53;5051085;28;20241;-83
2022/02/18 10:05:50;;;;;;;3.93;1.90;;;;;;;11.78;56.86;94969.38;5051684;28;20212;-83
2022/02/18 10:08:19;;;;;;;3.77;1.90;;;;;;;11.82;56.59;94970.59;5051572;28;20204;-83
2022/02/18 10:10:58;;;;;;;4.50;2.30;;;;;;;11.89;55.62;94958.50;5050053;28;20217;-84
2022/02/18 10:13:30;;;;;;;5.83;2.30;;;;;;;11.98;55.78;94954.69;5051605;28;20747;-82
2022/02/18 10:15:57;;;;;;;4.17;1.90;;;;;;;12.07;55.29;94950.94;5051199;28;20209;-81
2022/02/18 10:18:26;;;;;;;3.50;1.77;;;;;;;12.09;54.33;94940.41;5051022;28;20263;-84
2022/02/18 10:20:54;;;;;;;5.47;1.93;;;;;;;12.14;53.64;94938.00;5050078;28;20648;-83
2022/02/18 10:23:22;;;;;;;4.23;2.30;;;;;;;12.22;53.27;94930.06;5050486;28;20252;-83
2022/02/18 10:25:52;;;;;;;5.63;2.17;;;;;;;12.30;53.83;94934.22;5050501;28;20202;-83
2022/02/18 10:28:21;;;;;;;5.03;1.97;;;;;;;12.39;54.00;94936.34;5050586;28;20207;-83
2022/02/18 10:30:50;;;;;;;5.53;2.20;;;;;;;12.37;53.53;94924.63;5049585;28;20225;-83
2022/02/18 10:33:20;;;;;;;4.43;1.70;;;;;;;12.39;53.38;94917.50;5050520;28;20205;-83
2022/02/18 10:35:48;;;;;;;5.10;1.87;;;;;;;12.38;52.85;94916.69;5050132;28;20664;-82
2022/02/18 10:38:18;;;;;;;4.50;1.70;;;;;;;12.50;53.38;94905.75;5050267;28;20197;-83
2022/02/18 10:40:46;;;;;;;5.50;2.40;;;;;;;12.57;53.00;94901.34;5050007;28;20226;-83
2022/02/18 10:43:15;;;;;;;3.87;1.83;;;;;;;12.67;53.19;94899.13;5050393;28;20228;-81
2022/02/18 10:45:55;;;;;;;3.90;1.90;;;;;;;12.73;52.52;94893.09;5050279;28;20676;-83
2022/02/18 10:48:24;;;;;;;4.17;1.70;;;;;;;12.73;51.96;94887.94;5050042;28;20211;-81
2022/02/18 10:51:08;;;;;;;6.43;1.90;;;;;;;12.67;52.02;94878.47;5049877;28;20603;-80
2022/02/18 10:53:38;;;;;;;7.13;2.10;;;;;;;12.69;52.23;94874.69;5050351;28;20201;-81
2022/02/18 10:56:06;;;;;;;6.87;2.20;;;;;;;12.74;51.59;94863.69;5050611;28;20201;-83
2022/02/18 10:58:34;;;;;;;7.03;2.20;;;;;;;12.84;51.77;94852.94;5050624;28;20202;-82
2022/02/18 11:01:06;;;;;;;7.10;2.30;;;;;;;12.85;51.60;94857.09;5049099;28;20315;-83
2022/02/18 11:03:33;;;;;;;3.87;1.80;;;;;;;12.75;50.95;94845.41;5050019;28;20228;-83
2022/02/18 11:06:18;;;;;;;5.23;2.13;;;;;;;12.84;51.13;94829.69;5050146;28;20755;-83
2022/02/18 11:08:54;;;;;;;4.10;2.13;;;;;;;12.85;51.32;94834.63;5050157;28;20202;-82
2022/02/18 11:11:22;;;;;;;4.10;1.70;;;;;;;12.95;51.76;94832.38;5048965;28;20235;-83
2022/02/18 11:13:50;;;;;;;5.10;1.97;;;;;;;12.96;51.15;94822.81;5049696;28;20201;-83
2022/02/18 11:16:18;;;;;;;4.37;1.90;;;;;;;12.99;50.86;94809.50;5050228;28;20208;-82
2022/02/18 11:18:46;;;;;;;3.60;1.77;;;;;;;12.97;50.69;94801.16;5050313;28;20212;-83
2022/02/18 11:21:14;;;;;;;3.67;1.57;;;;;;;12.99;50.79;94809.50;5048879;28;20229;-83
2022/02/18 11:23:42;;;;;;;3.23;1.47;;;;;;;13.01;50.67;94810.06;5049614;28;20232;-83
2022/02/18 11:26:11;;;;;;;2.93;1.40;;;;;;;13.06;50.52;94811.03;5050160;28;20252;-82
2022/02/18 11:28:38;;;;;;;3.27;1.80;;;;;;;13.08;50.61;94798.66;5050220;28;20247;-82
2022/02/18 11:31:08;;;;;;;4.10;1.60;;;;;;;13.04;50.46;94786.41;5048874;28;20221;-83
2022/02/18 11:33:49;;;;;;;6.57;1.70;;;;;;;13.08;50.35;94785.00;5048939;28;20205;-83
2022/02/18 11:36:45;;;;;;;4.10;1.77;;;;;;;13.11;50.94;94782.75;5050480;28;20201;-83
2022/02/18 11:39:30;;;;;;;3.47;1.43;;;;;;;13.17;50.97;94788.13;5050171;28;20202;-83